createdAt,value
2023-03-13T00:01:29.281Z,69.69
2023-03-13T00:03:57.103Z,70.00
2023-03-13T00:10:43.808Z,70.38
2023-03-13T00:13:11.344Z,70.62
2023-03-13T00:15:38.894Z,71.83
2023-03-13T00:18:06.472Z,72.21
2023-03-13T00:20:34.259Z,72.49
2023-03-13T00:23:01.935Z,72.32
2023-03-13T00:25:29.491Z,72.04
2023-03-13T00:27:57.266Z,72.57
2023-03-13T00:30:24.828Z,72.37
2023-03-13T00:32:52.807Z,72.33
2023-03-13T00:35:20.585Z,73.20
2023-03-13T00:37:48.299Z,72.63
2023-03-13T00:40:15.844Z,72.09
2023-03-13T00:42:45.338Z,72.51
2023-03-13T00:45:12.894Z,72.10
2023-03-13T00:47:40.646Z,72.90
2023-03-13T00:50:10.052Z,73.02
2023-03-13T00:52:37.602Z,73.21
2023-03-13T00:55:05.479Z,73.26
2023-03-13T00:57:37.509Z,72.71
2023-03-13T01:00:08.585Z,72.56
2023-03-13T01:02:41.370Z,73.57
2023-03-13T01:05:09.417Z,72.84
2023-03-13T01:07:36.991Z,72.54
2023-03-13T01:10:04.805Z,72.48
2023-03-13T01:12:32.405Z,72.68
2023-03-13T01:15:00.023Z,72.88
2023-03-13T01:17:27.655Z,72.25
2023-03-13T01:19:58.262Z,71.36
2023-03-13T01:22:25.940Z,71.15
2023-03-13T01:24:54.182Z,70.47
2023-03-13T01:27:21.816Z,71.17
2023-03-13T01:29:49.318Z,71.75
2023-03-13T01:32:16.937Z,71.72
2023-03-13T01:34:44.499Z,71.01
2023-03-13T01:37:12.013Z,71.13
2023-03-13T01:39:39.690Z,71.51
2023-03-13T01:42:07.485Z,70.86
2023-03-13T01:44:49.420Z,70.85
2023-03-13T01:47:17.092Z,71.36
2023-03-13T01:49:59.637Z,71.26
2023-03-13T01:52:53.320Z,71.71
2023-03-13T01:55:26.290Z,71.67
2023-03-13T01:57:54.921Z,71.00
2023-03-13T02:00:27.069Z,70.44
2023-03-13T02:02:56.204Z,70.86
2023-03-13T02:05:25.893Z,69.95
2023-03-13T02:08:07.671Z,70.00
2023-03-13T02:10:39.774Z,70.60
2023-03-13T02:13:07.514Z,70.58
2023-03-13T02:15:35.194Z,70.87
2023-03-13T02:18:02.828Z,71.68
2023-03-13T02:20:30.437Z,72.65
2023-03-13T02:23:27.040Z,72.05
2023-03-13T02:25:55.088Z,72.67
2023-03-13T02:28:35.162Z,72.93
2023-03-13T02:31:06.955Z,72.84
2023-03-13T02:33:45.061Z,71.85
2023-03-13T02:36:17.424Z,72.37
2023-03-13T02:38:51.773Z,73.52
2023-03-13T02:41:21.745Z,72.27
2023-03-13T02:43:49.643Z,71.62
2023-03-13T02:46:19.246Z,72.24
2023-03-13T02:48:53.969Z,71.88
2023-03-13T02:51:23.648Z,71.98
2023-03-13T02:53:52.726Z,71.75
2023-03-13T02:56:21.384Z,71.21
2023-03-13T02:58:50.554Z,71.58
2023-03-13T03:01:21.669Z,72.93
2023-03-13T03:03:49.482Z,72.10
2023-03-13T03:06:20.119Z,73.56
2023-03-13T03:08:48.559Z,74.36
2023-03-13T03:11:16.174Z,75.17
2023-03-13T03:13:47.626Z,75.18
2023-03-13T03:16:20.817Z,75.78
2023-03-13T03:18:48.572Z,76.17
2023-03-13T03:21:16.659Z,76.12
2023-03-13T03:23:44.741Z,76.44
2023-03-13T03:26:12.466Z,77.03
2023-03-13T03:28:40.093Z,76.97
2023-03-13T03:31:13.821Z,76.57
2023-03-13T03:33:42.078Z,76.71
2023-03-13T03:36:14.530Z,76.90
2023-03-13T03:38:42.932Z,76.25
2023-03-13T03:41:14.102Z,76.24
2023-03-13T03:43:42.048Z,76.23
2023-03-13T03:46:11.503Z,76.21
2023-03-13T03:48:39.623Z,76.31
2023-03-13T03:51:09.031Z,75.91
2023-03-13T03:53:40.307Z,75.45
2023-03-13T03:56:08.706Z,75.40
2023-03-13T03:58:40.741Z,75.73
2023-03-13T04:01:14.499Z,75.22
2023-03-13T04:03:42.246Z,75.88
2023-03-13T04:06:10.311Z,75.21
2023-03-13T04:08:37.942Z,75.41
2023-03-13T04:11:05.610Z,75.25
2023-03-13T04:13:37.790Z,75.28
2023-03-13T04:16:08.677Z,76.10
2023-03-13T04:18:36.905Z,74.62
2023-03-13T04:21:05.551Z,74.88
2023-03-13T04:23:40.783Z,74.74
2023-03-13T04:26:08.538Z,74.05
2023-03-13T04:28:36.440Z,73.49
2023-03-13T04:31:06.217Z,73.14
2023-03-13T04:33:52.411Z,73.45
2023-03-13T04:36:38.669Z,72.72
2023-03-13T04:39:25.512Z,73.54
2023-03-13T04:42:16.963Z,73.64
2023-03-13T04:44:47.224Z,73.86
2023-03-13T04:47:44.175Z,72.82
2023-03-13T04:50:32.003Z,73.94
2023-03-13T04:53:22.666Z,71.94
2023-03-13T04:56:19.331Z,73.75
2023-03-13T04:59:06.476Z,71.98
2023-03-13T05:01:52.878Z,72.67
2023-03-13T05:04:37.428Z,73.07
2023-03-13T05:07:23.662Z,72.29
2023-03-13T05:10:05.779Z,71.67
2023-03-13T05:12:49.107Z,71.39
2023-03-13T05:15:26.972Z,70.89
2023-03-13T05:18:17.206Z,70.95
2023-03-13T05:20:59.146Z,71.37
2023-03-13T05:23:50.208Z,73.94
2023-03-13T05:26:46.971Z,71.86
2023-03-13T05:29:33.546Z,71.53
2023-03-13T05:32:07.231Z,71.49
2023-03-13T05:34:43.636Z,71.18
2023-03-13T05:37:43.784Z,72.22
2023-03-13T05:40:14.732Z,72.35
2023-03-13T05:43:05.964Z,74.05
2023-03-13T05:45:53.914Z,74.66
2023-03-13T05:48:40.434Z,74.60
2023-03-13T05:51:22.951Z,74.39
2023-03-13T05:54:19.030Z,74.35
2023-03-13T05:57:25.295Z,74.96
2023-03-13T06:00:22.309Z,73.97
2023-03-13T06:03:03.813Z,73.75
2023-03-13T06:05:38.491Z,73.63
2023-03-13T06:08:13.925Z,73.98
2023-03-13T06:10:41.904Z,73.34
2023-03-13T06:13:19.392Z,73.40
2023-03-13T06:15:53.565Z,73.54
2023-03-13T06:18:38.380Z,73.18
2023-03-13T06:21:06.224Z,71.47
2023-03-13T06:23:33.828Z,70.53
2023-03-13T06:26:01.752Z,69.97
2023-03-13T06:28:29.441Z,70.13
2023-03-13T06:31:01.645Z,70.92
2023-03-13T06:33:32.500Z,71.91
2023-03-13T06:36:00.847Z,72.08
2023-03-13T06:38:29.690Z,72.84
2023-03-13T06:40:57.348Z,71.08
2023-03-13T06:43:25.027Z,72.51
2023-03-13T06:45:52.746Z,71.05
2023-03-13T06:48:21.899Z,71.46
2023-03-13T06:50:49.897Z,71.43
2023-03-13T06:53:18.744Z,70.87
2023-03-13T06:55:46.680Z,71.13
2023-03-13T06:58:30.665Z,71.62
2023-03-13T07:01:00.277Z,71.66
2023-03-13T07:03:28.068Z,71.50
2023-03-13T07:05:59.113Z,69.57
2023-03-13T07:08:27.278Z,70.43
2023-03-13T07:10:58.462Z,68.91
2023-03-13T07:13:26.326Z,68.69
2023-03-13T07:15:54.132Z,69.25
2023-03-13T07:18:24.515Z,69.18
2023-03-13T07:20:52.921Z,69.90
2023-03-13T07:23:20.862Z,69.53
2023-03-13T07:25:55.915Z,68.92
2023-03-13T07:28:24.082Z,68.17
2023-03-13T07:30:51.839Z,69.33
2023-03-13T07:33:20.017Z,69.19
2023-03-13T07:35:48.422Z,68.63
2023-03-13T07:38:16.241Z,68.26
2023-03-13T07:40:56.825Z,67.49
2023-03-13T07:43:25.085Z,68.44
2023-03-13T07:46:02.739Z,68.02
2023-03-13T07:51:25.219Z,66.15
2023-03-13T07:53:58.119Z,66.79
2023-03-13T07:56:25.924Z,65.21
2023-03-13T07:58:53.622Z,63.97
2023-03-13T08:01:27.348Z,63.58
2023-03-13T08:03:56.502Z,65.00
2023-03-13T08:06:25.097Z,64.67
2023-03-13T08:08:53.726Z,62.81
2023-03-13T08:11:24.628Z,61.13
2023-03-13T08:14:12.007Z,61.56
2023-03-13T08:16:39.810Z,60.45
2023-03-13T08:19:07.677Z,59.94
2023-03-13T08:21:36.528Z,57.09
2023-03-13T08:24:07.130Z,55.48
2023-03-13T08:26:36.131Z,55.82
2023-03-13T08:29:05.652Z,54.44
2023-03-13T08:31:34.471Z,51.45
2023-03-13T08:34:02.206Z,51.16
2023-03-13T08:36:31.542Z,50.30
2023-03-13T08:39:00.788Z,50.74
2023-03-13T08:41:29.601Z,50.43
2023-03-13T08:43:57.582Z,49.80
2023-03-13T08:46:25.761Z,48.95
2023-03-13T08:48:54.348Z,49.41
2023-03-13T08:51:26.595Z,52.13
2023-03-13T08:53:56.196Z,52.91
2023-03-13T08:56:25.399Z,50.63
2023-03-13T08:58:54.051Z,51.59
2023-03-13T09:01:23.122Z,51.13
2023-03-13T09:03:51.106Z,50.86
2023-03-13T09:06:18.861Z,51.85
2023-03-13T09:08:46.700Z,51.60
2023-03-13T09:11:15.747Z,50.67
2023-03-13T09:13:47.236Z,50.61
2023-03-13T09:16:19.768Z,48.52
2023-03-13T09:18:48.079Z,47.92
2023-03-13T09:21:17.436Z,46.31
2023-03-13T09:23:45.402Z,48.61
2023-03-13T09:26:13.750Z,45.68
2023-03-13T09:28:44.529Z,44.18
2023-03-13T09:31:16.654Z,46.07
2023-03-13T09:33:44.979Z,44.26
2023-03-13T09:36:13.126Z,43.18
2023-03-13T09:38:40.952Z,44.34
2023-03-13T09:41:37.737Z,41.70
2023-03-13T09:44:14.634Z,43.48
2023-03-13T09:46:48.674Z,42.84
2023-03-13T09:49:30.682Z,44.84
2023-03-13T09:52:06.149Z,43.27
2023-03-13T09:54:42.516Z,41.28
2023-03-13T09:57:33.515Z,37.61
2023-03-13T10:00:07.510Z,41.60
2023-03-13T10:02:36.062Z,40.67
2023-03-13T10:05:06.256Z,39.55
2023-03-13T10:07:33.933Z,38.73
2023-03-13T10:10:02.236Z,40.85
2023-03-13T10:12:31.807Z,39.18
2023-03-13T10:15:08.543Z,41.90
2023-03-13T10:17:37.605Z,43.24
2023-03-13T10:20:23.414Z,40.62
2023-03-13T10:23:11.325Z,39.83
2023-03-13T10:25:39.492Z,40.47
2023-03-13T10:28:11.128Z,40.14
2023-03-13T10:30:43.792Z,40.07
2023-03-13T10:33:11.484Z,38.79
2023-03-13T10:35:40.541Z,40.91
2023-03-13T10:38:22.783Z,40.19
2023-03-13T10:40:59.147Z,40.16
2023-03-13T10:43:27.628Z,41.21
2023-03-13T10:45:55.425Z,42.73
2023-03-13T10:48:30.009Z,40.27
2023-03-13T10:50:57.983Z,40.79
2023-03-13T10:53:31.760Z,41.23
2023-03-13T10:56:11.392Z,40.36
2023-03-13T10:58:46.583Z,39.85
2023-03-13T11:01:33.532Z,41.24
2023-03-13T11:04:18.798Z,41.72
2023-03-13T11:06:50.773Z,40.03
2023-03-13T11:09:18.792Z,40.63
2023-03-13T11:11:47.988Z,40.48
2023-03-13T11:14:17.015Z,39.06
2023-03-13T11:16:48.041Z,39.21
2023-03-13T11:19:15.764Z,38.09
2023-03-13T11:22:01.727Z,36.89
2023-03-13T11:24:56.044Z,39.47
2023-03-13T11:27:43.080Z,41.94
2023-03-13T11:30:22.987Z,41.25
2023-03-13T11:33:02.252Z,42.47
2023-03-13T11:35:36.591Z,41.41
2023-03-13T11:38:08.793Z,41.94
2023-03-13T11:40:47.876Z,40.76
2023-03-13T11:43:25.541Z,41.49
2023-03-13T11:46:26.319Z,42.63
2023-03-13T11:49:09.442Z,40.71
2023-03-13T11:51:54.224Z,40.92
2023-03-13T11:54:24.996Z,41.87
2023-03-13T11:56:57.473Z,41.85
2023-03-13T11:59:43.914Z,41.49
2023-03-13T12:02:14.726Z,40.62
2023-03-13T12:04:55.326Z,41.92
2023-03-13T12:07:33.213Z,41.06
2023-03-13T12:10:21.052Z,41.24
2023-03-13T12:13:07.558Z,40.86
2023-03-13T12:15:40.968Z,40.99
2023-03-13T12:18:31.940Z,40.71
2023-03-13T12:21:18.344Z,41.71
2023-03-13T12:23:49.435Z,41.20
2023-03-13T12:26:28.226Z,40.42
2023-03-13T12:28:59.194Z,40.82
2023-03-13T12:31:31.895Z,41.16
2023-03-13T12:34:02.596Z,41.06
2023-03-13T12:36:50.650Z,41.58
2023-03-13T12:39:34.938Z,40.52
2023-03-13T12:42:07.883Z,41.19
2023-03-13T12:44:35.738Z,41.27
2023-03-13T12:47:09.600Z,40.70
2023-03-13T12:49:37.344Z,39.43
2023-03-13T12:52:08.013Z,40.07
2023-03-13T12:54:49.229Z,40.31
2023-03-13T12:57:16.974Z,40.32
2023-03-13T12:59:47.550Z,40.15
2023-03-13T13:02:18.513Z,39.52
2023-03-13T13:04:48.113Z,41.17
2023-03-13T13:07:24.443Z,39.91
2023-03-13T13:10:10.659Z,39.93
2023-03-13T13:12:38.336Z,41.66
2023-03-13T13:15:12.283Z,40.70
2023-03-13T13:17:45.865Z,41.23
2023-03-13T13:20:25.689Z,40.24
2023-03-13T13:22:54.007Z,40.46
2023-03-13T13:25:24.708Z,40.71
2023-03-13T13:27:52.604Z,40.90
2023-03-13T13:30:20.293Z,41.50
2023-03-13T13:32:50.365Z,41.11
2023-03-13T13:35:18.634Z,40.89
2023-03-13T13:37:49.434Z,40.53
2023-03-13T13:40:19.394Z,40.74
2023-03-13T13:42:50.469Z,40.17
2023-03-13T13:45:18.707Z,40.86
2023-03-13T13:47:48.539Z,40.97
2023-03-13T13:50:22.998Z,39.83
2023-03-13T13:52:51.767Z,40.15
2023-03-13T13:55:26.414Z,40.32
2023-03-13T13:58:05.097Z,39.73
2023-03-13T14:00:47.132Z,40.48
2023-03-13T14:03:22.617Z,39.74
2023-03-13T14:05:52.779Z,39.47
2023-03-13T14:08:23.099Z,38.74
2023-03-13T14:11:11.304Z,38.90
2023-03-13T14:13:39.239Z,38.28
2023-03-13T14:16:23.050Z,39.41
2023-03-13T14:18:52.411Z,38.79
2023-03-13T14:21:24.366Z,38.44
2023-03-13T14:23:52.430Z,39.01
2023-03-13T14:26:20.077Z,39.30
2023-03-13T14:28:53.830Z,38.65
2023-03-13T14:31:35.641Z,39.41
2023-03-13T14:34:04.828Z,38.98
2023-03-13T14:36:46.161Z,37.51
2023-03-13T14:39:32.545Z,39.00
2023-03-13T14:42:04.719Z,38.35
2023-03-13T14:44:36.955Z,39.57
2023-03-13T14:47:05.771Z,37.98
2023-03-13T14:49:33.700Z,39.37
2023-03-13T14:52:02.626Z,40.02
2023-03-13T14:54:30.442Z,39.54
2023-03-13T14:57:18.194Z,41.13
2023-03-13T14:59:45.990Z,40.05
2023-03-13T15:02:20.251Z,39.19
2023-03-13T15:04:48.632Z,40.11
2023-03-13T15:07:16.684Z,40.51
2023-03-13T15:09:45.422Z,40.70
2023-03-13T15:12:23.720Z,39.99
2023-03-13T15:14:52.663Z,40.99
2023-03-13T15:17:22.083Z,40.68
2023-03-13T15:19:52.906Z,40.62
2023-03-13T15:22:25.268Z,41.32
2023-03-13T15:25:05.214Z,41.30
2023-03-13T15:27:33.994Z,41.72
2023-03-13T15:30:01.621Z,41.85
2023-03-13T15:32:31.376Z,42.52
2023-03-13T15:35:02.014Z,42.04
2023-03-13T15:37:30.283Z,41.85
2023-03-13T15:39:58.399Z,42.48
2023-03-13T15:42:26.181Z,42.27
2023-03-13T15:44:53.946Z,42.72
2023-03-13T15:47:22.246Z,43.30
2023-03-13T15:49:50.008Z,42.20
2023-03-13T15:52:23.497Z,42.76
2023-03-13T15:54:52.270Z,42.87
2023-03-13T15:57:25.632Z,42.41
2023-03-13T15:59:54.321Z,43.06
2023-03-13T16:02:23.419Z,42.70
2023-03-13T16:04:52.046Z,43.58
2023-03-13T16:07:21.475Z,43.33
2023-03-13T16:09:50.266Z,42.82
2023-03-13T16:12:18.228Z,43.49
2023-03-13T16:14:45.943Z,43.59
2023-03-13T16:17:15.701Z,43.68
2023-03-13T16:19:44.035Z,43.28
2023-03-13T16:22:11.763Z,43.63
2023-03-13T16:24:39.796Z,43.56
2023-03-13T16:27:13.206Z,43.34
2023-03-13T16:29:40.928Z,43.69
2023-03-13T16:32:11.002Z,44.40
2023-03-13T16:34:38.884Z,44.27
2023-03-13T16:37:14.214Z,44.35
2023-03-13T16:39:42.255Z,44.79
2023-03-13T16:42:10.355Z,44.78
2023-03-13T16:44:40.946Z,45.29
2023-03-13T16:47:15.901Z,44.56
2023-03-13T16:49:45.690Z,44.57
2023-03-13T16:52:15.724Z,44.80
2023-03-13T16:54:43.977Z,44.93
2023-03-13T16:57:16.927Z,45.81
2023-03-13T16:59:44.641Z,45.05
2023-03-13T17:02:17.234Z,45.14
2023-03-13T17:04:45.537Z,45.33
2023-03-13T17:07:21.111Z,45.45
2023-03-13T17:09:49.148Z,45.29
2023-03-13T17:12:16.997Z,46.13
2023-03-13T17:14:45.036Z,45.77
2023-03-13T17:17:17.931Z,45.40
2023-03-13T17:19:45.878Z,45.56
2023-03-13T17:22:14.928Z,45.57
2023-03-13T17:24:42.644Z,45.37
2023-03-13T17:27:14.022Z,45.60
2023-03-13T17:29:42.214Z,45.98
2023-03-13T17:32:10.843Z,46.05
2023-03-13T17:34:38.933Z,45.63
2023-03-13T17:37:17.305Z,46.04
2023-03-13T17:39:45.606Z,46.61
2023-03-13T17:42:13.585Z,46.40
2023-03-13T17:44:41.428Z,47.01
2023-03-13T17:47:13.776Z,47.66
2023-03-13T17:49:41.733Z,46.54
2023-03-13T17:52:12.698Z,47.62
2023-03-13T17:54:40.440Z,47.02
2023-03-13T17:57:13.680Z,47.74
2023-03-13T17:59:41.622Z,48.04
2023-03-13T18:02:11.433Z,47.93
2023-03-13T18:04:39.393Z,48.21
2023-03-13T18:07:25.377Z,48.14
2023-03-13T18:09:53.146Z,48.50
2023-03-13T18:12:20.786Z,48.80
2023-03-13T18:14:48.384Z,48.21
2023-03-13T18:17:17.754Z,48.74
2023-03-13T18:19:45.775Z,49.03
2023-03-13T18:22:21.652Z,48.55
2023-03-13T18:24:49.375Z,49.78
2023-03-13T18:27:18.230Z,49.05
2023-03-13T18:29:46.681Z,47.77
2023-03-13T18:32:14.852Z,48.20
2023-03-13T18:34:42.849Z,48.81
2023-03-13T18:37:17.890Z,49.57
2023-03-13T18:39:45.662Z,49.38
2023-03-13T18:42:13.263Z,50.29
2023-03-13T18:44:40.880Z,50.09
2023-03-13T18:47:16.475Z,49.19
2023-03-13T18:49:44.274Z,50.11
2023-03-13T18:52:12.325Z,50.59
2023-03-13T18:54:40.100Z,51.22
2023-03-13T18:57:14.698Z,52.55
2023-03-13T18:59:43.204Z,52.44
2023-03-13T19:02:18.330Z,53.09
2023-03-13T19:04:47.492Z,54.04
2023-03-13T19:07:16.381Z,54.07
2023-03-13T19:09:46.444Z,54.52
2023-03-13T19:12:15.757Z,55.67
2023-03-13T19:14:43.625Z,56.66
2023-03-13T19:17:26.133Z,57.51
2023-03-13T19:19:57.379Z,57.41
2023-03-13T19:22:25.549Z,57.66
2023-03-13T19:24:53.307Z,57.87
2023-03-13T19:27:21.063Z,57.63
2023-03-13T19:29:48.715Z,58.23
2023-03-13T19:32:41.401Z,57.45
2023-03-13T19:35:09.492Z,57.97
2023-03-13T19:37:37.175Z,58.06
2023-03-13T19:40:05.844Z,57.97
2023-03-13T19:42:35.479Z,57.50
2023-03-13T19:45:03.508Z,57.94
2023-03-13T19:47:31.330Z,57.53
2023-03-13T19:49:59.160Z,58.40
2023-03-13T19:52:27.533Z,58.97
2023-03-13T19:54:55.938Z,58.92
2023-03-13T19:57:23.560Z,57.81
2023-03-13T19:59:51.105Z,57.39
2023-03-13T20:02:18.821Z,57.29
2023-03-13T20:04:46.662Z,57.46
2023-03-13T20:07:14.278Z,57.80
2023-03-13T20:09:41.950Z,59.05
2023-03-13T20:12:09.719Z,59.71
2023-03-13T20:14:37.338Z,59.53
2023-03-13T20:17:04.978Z,59.58
2023-03-13T20:19:33.095Z,59.47
2023-03-13T20:22:04.681Z,59.66
2023-03-13T20:24:33.719Z,60.15
2023-03-13T20:27:02.271Z,59.73
2023-03-13T20:29:30.293Z,59.63
2023-03-13T20:32:01.791Z,59.11
2023-03-13T20:34:29.610Z,60.04
2023-03-13T20:37:00.103Z,60.07
2023-03-13T20:39:28.476Z,61.01
2023-03-13T20:41:56.519Z,60.71
2023-03-13T20:44:24.169Z,60.20
2023-03-13T20:46:51.978Z,59.89
2023-03-13T20:49:19.869Z,60.18
2023-03-13T20:51:47.676Z,60.90
2023-03-13T20:54:15.370Z,60.96
2023-03-13T20:56:43.079Z,60.45
2023-03-13T20:59:10.665Z,60.43
2023-03-13T21:01:38.365Z,60.90
2023-03-13T21:04:05.978Z,61.20
2023-03-13T21:06:34.164Z,60.92
2023-03-13T21:09:02.012Z,61.24
2023-03-13T21:11:29.702Z,61.28
2023-03-13T21:13:57.285Z,60.85
2023-03-13T21:16:24.976Z,60.90
2023-03-13T21:18:52.654Z,61.22
2023-03-13T21:21:22.558Z,61.29
2023-03-13T21:23:53.415Z,61.09
2023-03-13T21:26:21.396Z,60.74
2023-03-13T21:28:49.140Z,61.04
2023-03-13T21:31:17.787Z,61.64
2023-03-13T21:33:46.318Z,61.83
2023-03-13T21:36:15.194Z,62.34
2023-03-13T21:38:43.422Z,62.05
2023-03-13T21:41:12.977Z,61.26
2023-03-13T21:43:44.136Z,61.48
2023-03-13T21:46:13.253Z,62.02
2023-03-13T21:48:41.629Z,62.81
2023-03-13T21:51:09.753Z,61.72
2023-03-13T21:53:37.705Z,62.71
2023-03-13T21:56:05.517Z,63.85
2023-03-13T21:58:34.321Z,63.89
2023-03-13T22:01:02.365Z,65.59
2023-03-13T22:03:31.917Z,66.64
2023-03-13T22:05:59.524Z,67.16
2023-03-13T22:08:28.097Z,66.38
2023-03-13T22:10:56.041Z,65.70
2023-03-13T22:13:23.791Z,66.49
2023-03-13T22:15:53.093Z,66.28
2023-03-13T22:18:20.959Z,67.54
2023-03-13T22:20:48.617Z,68.78
2023-03-13T22:23:16.200Z,69.38
2023-03-13T22:25:44.459Z,69.33
2023-03-13T22:28:12.261Z,69.89
2023-03-13T22:30:40.140Z,70.50
2023-03-13T22:33:08.268Z,70.26
2023-03-13T22:35:39.328Z,71.04
2023-03-13T22:38:07.005Z,70.72
2023-03-13T22:40:34.658Z,70.78
2023-03-13T22:43:02.410Z,71.20
2023-03-13T22:45:32.278Z,71.89
2023-03-13T22:48:06.199Z,71.26
2023-03-13T22:50:34.992Z,71.96
2023-03-13T22:53:03.192Z,71.69
2023-03-13T22:55:32.254Z,72.47
2023-03-13T22:58:00.226Z,72.50
2023-03-13T23:00:27.878Z,73.19
2023-03-13T23:02:55.600Z,73.59
2023-03-13T23:05:23.229Z,73.16
2023-03-13T23:07:51.081Z,73.35
2023-03-13T23:10:18.821Z,74.01
2023-03-13T23:12:46.458Z,74.85
2023-03-13T23:15:14.826Z,74.78
2023-03-13T23:17:43.839Z,75.18
2023-03-13T23:20:13.313Z,75.38
2023-03-13T23:22:42.150Z,75.93
2023-03-13T23:25:10.826Z,75.78
2023-03-13T23:27:39.080Z,75.60
2023-03-13T23:30:07.741Z,74.56
2023-03-13T23:32:36.809Z,74.87
2023-03-13T23:35:07.453Z,75.09
2023-03-13T23:37:35.181Z,74.97
2023-03-13T23:40:04.550Z,75.45
2023-03-13T23:42:32.200Z,75.93
2023-03-13T23:45:00.636Z,76.20
2023-03-13T23:47:30.227Z,76.24
2023-03-13T23:49:57.968Z,76.75
2023-03-13T23:52:25.580Z,77.34
2023-03-13T23:54:53.307Z,77.37
2023-03-13T23:57:21.138Z,77.32
2023-03-13T23:59:49.404Z,78.22
